createdAt,value
2022-09-13T00:01:26.940Z,97043.19
2022-09-13T00:03:53.716Z,97034.59
2022-09-13T00:06:22.632Z,97025.28
2022-09-13T00:08:49.847Z,97013.56
2022-09-13T00:11:23.462Z,97006.56
2022-09-13T00:13:50.940Z,96995.63
2022-09-13T00:16:20.253Z,96984.31
2022-09-13T00:18:47.103Z,96983.16
2022-09-13T00:21:16.749Z,96974.56
2022-09-13T00:23:49.123Z,96958.97
2022-09-13T00:26:23.464Z,96958.59
2022-09-13T00:28:51.899Z,96951.97
2022-09-13T00:31:19.839Z,96947.28
2022-09-13T00:33:46.929Z,96936.75
2022-09-13T00:36:17.455Z,96928.56
2022-09-13T00:38:44.518Z,96927.78
2022-09-13T00:41:14.509Z,96916.09
2022-09-13T00:43:44.149Z,96898.91
2022-09-13T00:46:16.632Z,96888.78
2022-09-13T00:48:46.346Z,96878.66
2022-09-13T00:51:13.981Z,96873.19
2022-09-13T00:53:47.815Z,96857.59
2022-09-13T00:56:45.780Z,96845.91
2022-09-13T00:59:39.508Z,96826.81
2022-09-13T01:02:06.542Z,96819.78
2022-09-13T01:04:37.107Z,96809.25
2022-09-13T01:07:08.725Z,96787.00
2022-09-13T01:09:44.026Z,96778.81
2022-09-13T01:12:38.089Z,96766.31
2022-09-13T01:15:06.609Z,96744.50
2022-09-13T01:17:35.374Z,96726.53
2022-09-13T01:20:04.433Z,96718.78
2022-09-13T01:22:57.172Z,96699.28
2022-09-13T01:25:43.919Z,96681.34
2022-09-13T01:28:35.036Z,96666.53
2022-09-13T01:31:18.837Z,96652.50
2022-09-13T01:34:07.012Z,96643.13
2022-09-13T01:36:42.632Z,96638.13
2022-09-13T01:39:17.801Z,96627.59
2022-09-13T01:42:11.586Z,96606.53
2022-09-13T01:45:02.371Z,96596.41
2022-09-13T01:47:48.189Z,96578.50
2022-09-13T01:50:26.649Z,96574.56
2022-09-13T01:53:02.006Z,96569.50
2022-09-13T01:55:54.680Z,96543.38
2022-09-13T01:58:29.308Z,96542.19
2022-09-13T02:01:24.826Z,96529.34
2022-09-13T02:04:08.619Z,96527.41
2022-09-13T02:06:45.776Z,96515.31
2022-09-13T02:09:21.679Z,96510.63
2022-09-13T02:11:54.832Z,96493.47
2022-09-13T02:14:58.972Z,96490.38
2022-09-13T02:17:29.960Z,96475.56
2022-09-13T02:20:21.428Z,96463.06
2022-09-13T02:22:57.275Z,96453.09
2022-09-13T02:25:26.716Z,96405.31
2022-09-13T02:28:02.075Z,96385.31
2022-09-13T02:30:31.705Z,96364.59
2022-09-13T02:33:13.159Z,96356.41
2022-09-13T02:35:53.845Z,96359.50
2022-09-13T02:38:30.370Z,96348.97
2022-09-13T02:41:12.079Z,96343.88
2022-09-13T02:43:44.849Z,96340.38
2022-09-13T02:46:27.776Z,96334.56
2022-09-13T02:49:08.551Z,96335.38
2022-09-13T02:51:55.467Z,96332.28
2022-09-13T02:54:32.880Z,96340.66
2022-09-13T02:57:07.525Z,96290.19
2022-09-13T02:59:34.595Z,96267.88
2022-09-13T03:02:08.236Z,96267.41
2022-09-13T03:04:35.467Z,96249.13
2022-09-13T03:07:07.119Z,96249.88
2022-09-13T03:09:34.400Z,96242.06
2022-09-13T03:12:16.156Z,96246.94
2022-09-13T03:14:56.772Z,96211.28
2022-09-13T03:17:34.457Z,96189.72
2022-09-13T03:20:09.457Z,96193.19
2022-09-13T03:23:11.980Z,96198.63
2022-09-13T03:26:08.830Z,96182.28
2022-09-13T03:29:12.351Z,96170.19
2022-09-13T03:31:56.860Z,96169.94
2022-09-13T03:34:59.243Z,96134.91
2022-09-13T03:37:38.596Z,96107.13
2022-09-13T03:40:12.842Z,96105.50
2022-09-13T03:42:53.508Z,96097.25
2022-09-13T03:45:26.395Z,96096.63
2022-09-13T03:47:55.157Z,96077.66
2022-09-13T03:50:25.121Z,96056.03
2022-09-13T03:52:57.553Z,96052.38
2022-09-13T03:55:26.026Z,96069.47
2022-09-13T03:57:52.782Z,96069.72
2022-09-13T04:00:20.231Z,96047.13
2022-09-13T04:02:46.956Z,96036.00
2022-09-13T04:05:13.687Z,96034.81
2022-09-13T04:07:40.340Z,96039.44
2022-09-13T04:10:10.721Z,96042.72
2022-09-13T04:12:41.407Z,96016.41
2022-09-13T04:15:09.087Z,96006.94
2022-09-13T04:17:36.561Z,96011.53
2022-09-13T04:20:04.561Z,95997.34
2022-09-13T04:22:31.653Z,96004.94
2022-09-13T04:25:02.506Z,95989.13
2022-09-13T04:27:29.536Z,95971.84
2022-09-13T04:29:56.170Z,95961.25
2022-09-13T04:32:22.833Z,95958.03
2022-09-13T04:34:51.408Z,95965.50
2022-09-13T04:37:18.016Z,95951.69
2022-09-13T04:39:44.629Z,95928.94
2022-09-13T04:42:14.141Z,95928.78
2022-09-13T04:44:40.934Z,95932.66
2022-09-13T04:47:08.324Z,95939.94
2022-09-13T04:49:35.020Z,95903.00
2022-09-13T04:52:01.827Z,95877.94
2022-09-13T04:54:28.455Z,95874.28
2022-09-13T04:56:55.265Z,95876.53
2022-09-13T04:59:22.031Z,95860.84
2022-09-13T05:01:48.700Z,95851.84
2022-09-13T05:04:15.514Z,95841.97
2022-09-13T05:06:44.503Z,95839.97
2022-09-13T05:09:14.380Z,95841.66
2022-09-13T05:11:44.189Z,95823.16
2022-09-13T05:14:12.072Z,95794.22
2022-09-13T05:16:38.771Z,95787.53
2022-09-13T05:19:05.450Z,95776.88
2022-09-13T05:21:32.123Z,95781.66
2022-09-13T05:24:02.036Z,95764.00
2022-09-13T05:26:33.716Z,95737.38
2022-09-13T05:29:00.719Z,95723.19
2022-09-13T05:31:40.175Z,95711.41
2022-09-13T05:34:10.686Z,95701.69
2022-09-13T05:36:37.975Z,95694.28
2022-09-13T05:39:29.772Z,95687.22
2022-09-13T05:41:54.442Z,95647.03
2022-09-13T05:44:21.069Z,95627.88
2022-09-13T05:46:49.054Z,95628.91
2022-09-13T05:49:15.801Z,95618.78
2022-09-13T05:51:42.405Z,95614.75
2022-09-13T05:54:12.140Z,95612.03
2022-09-13T05:56:38.792Z,95610.84
2022-09-13T05:59:05.433Z,95595.16
2022-09-13T06:01:32.291Z,95589.03
2022-09-13T06:03:59.552Z,95571.78
2022-09-13T06:06:26.875Z,95551.03
2022-09-13T06:08:57.565Z,95533.28
2022-09-13T06:11:26.230Z,95516.06
2022-09-13T06:13:53.603Z,95506.69
2022-09-13T06:16:21.021Z,95483.84
2022-09-13T06:18:49.193Z,95470.41
2022-09-13T06:21:28.899Z,95469.53
2022-09-13T06:23:57.209Z,95444.41
2022-09-13T06:26:27.051Z,95440.22
2022-09-13T06:28:56.836Z,95426.59
2022-09-13T06:31:25.535Z,95401.53
2022-09-13T06:33:57.842Z,95389.25
2022-09-13T06:36:26.937Z,95369.16
2022-09-13T06:38:55.952Z,95365.75
2022-09-13T06:41:25.127Z,95337.63
2022-09-13T06:43:57.739Z,95323.56
2022-09-13T06:46:25.605Z,95314.63
2022-09-13T06:48:52.876Z,95297.53
2022-09-13T06:51:24.727Z,95307.13
2022-09-13T06:53:52.281Z,95293.78
2022-09-13T06:56:21.619Z,95289.69
2022-09-13T06:58:50.198Z,95287.69
2022-09-13T07:01:25.377Z,95280.06
2022-09-13T07:04:04.608Z,95277.41
2022-09-13T07:06:34.724Z,95254.97
2022-09-13T07:09:03.718Z,95260.88
2022-09-13T07:11:39.128Z,95257.34
2022-09-13T07:14:06.988Z,95244.06
2022-09-13T07:16:36.764Z,95231.53
2022-09-13T07:19:06.720Z,95232.13
2022-09-13T07:21:34.985Z,95227.59
2022-09-13T07:24:02.661Z,95215.16
2022-09-13T07:26:33.743Z,95220.03
2022-09-13T07:29:05.221Z,95199.22
2022-09-13T07:31:36.432Z,95199.66
2022-09-13T07:34:08.974Z,95199.00
2022-09-13T07:36:38.543Z,95178.06
2022-09-13T07:39:08.231Z,95174.00
2022-09-13T07:41:39.762Z,95157.66
2022-09-13T07:44:06.839Z,95143.50
2022-09-13T07:46:41.916Z,95151.53
2022-09-13T07:49:08.567Z,95118.28
2022-09-13T07:51:37.465Z,95122.53
2022-09-13T07:54:06.724Z,95118.81
2022-09-13T07:56:38.445Z,95103.88
2022-09-13T07:59:07.568Z,95099.19
2022-09-13T08:01:40.285Z,95086.75
2022-09-13T08:04:14.474Z,95084.13
2022-09-13T08:06:45.740Z,95087.28
2022-09-13T08:09:15.111Z,95081.63
2022-09-13T08:11:48.851Z,95078.56
2022-09-13T08:14:17.835Z,95070.16
2022-09-13T08:16:45.232Z,95065.28
2022-09-13T08:19:19.106Z,95062.97
2022-09-13T08:21:46.759Z,95060.69
2022-09-13T08:24:22.109Z,95060.47
2022-09-13T08:26:52.231Z,95050.00
2022-09-13T08:29:19.477Z,95046.59
2022-09-13T08:31:46.090Z,95050.19
2022-09-13T08:34:15.107Z,95046.41
2022-09-13T08:36:41.910Z,95040.28
2022-09-13T08:39:09.767Z,95037.34
2022-09-13T08:41:44.976Z,95037.88
2022-09-13T08:44:17.768Z,95034.81
2022-09-13T08:46:47.758Z,95031.25
2022-09-13T08:49:23.990Z,95023.91
2022-09-13T08:52:01.479Z,95008.22
2022-09-13T08:54:28.595Z,95024.13
2022-09-13T08:57:24.026Z,95018.56
2022-09-13T09:00:20.627Z,95004.81
2022-09-13T09:03:02.666Z,94993.59
2022-09-13T09:05:35.134Z,94981.41
2022-09-13T09:08:31.496Z,94937.28
2022-09-13T09:11:03.787Z,94926.13
2022-09-13T09:13:35.564Z,94938.44
2022-09-13T09:16:07.471Z,94947.31
2022-09-13T09:18:43.488Z,94951.66
2022-09-13T09:21:18.011Z,94946.06
2022-09-13T09:23:56.090Z,94956.66
2022-09-13T09:26:26.817Z,94952.28
2022-09-13T09:28:58.888Z,94959.78
2022-09-13T09:31:42.419Z,94959.00
2022-09-13T09:34:26.640Z,94963.53
2022-09-13T09:37:12.212Z,94979.91
2022-09-13T09:39:40.954Z,94973.34
2022-09-13T09:42:18.517Z,94963.84
2022-09-13T09:45:23.408Z,94965.13
2022-09-13T09:47:51.775Z,94967.41
2022-09-13T09:50:28.419Z,94964.47
2022-09-13T09:53:05.071Z,94964.09
2022-09-13T09:56:16.755Z,94963.16
2022-09-13T09:58:45.332Z,94955.63
2022-09-13T10:01:37.731Z,94953.53
2022-09-13T10:04:20.036Z,94950.78
2022-09-13T10:06:47.308Z,94958.53
2022-09-13T10:09:13.847Z,94963.13
2022-09-13T10:11:49.192Z,94958.88
2022-09-13T10:14:34.732Z,94956.47
2022-09-13T10:17:27.695Z,94953.72
2022-09-13T10:20:02.093Z,94965.13
2022-09-13T10:22:31.357Z,94942.16
2022-09-13T10:25:23.056Z,94934.38
2022-09-13T10:27:54.260Z,94930.00
2022-09-13T10:30:46.474Z,94932.94
2022-09-13T10:33:36.338Z,94927.47
2022-09-13T10:36:48.250Z,94934.31
2022-09-13T10:39:20.328Z,94927.19
2022-09-13T10:42:06.611Z,94918.75
2022-09-13T10:44:53.841Z,94927.72
2022-09-13T10:47:24.023Z,94926.06
2022-09-13T10:49:56.276Z,94912.72
2022-09-13T10:52:53.052Z,94898.66
2022-09-13T10:55:20.249Z,94892.16
2022-09-13T10:57:55.342Z,94879.75
2022-09-13T11:00:31.268Z,94875.22
2022-09-13T11:03:16.788Z,94865.25
2022-09-13T11:05:54.981Z,94864.94
2022-09-13T11:08:35.736Z,94859.34
2022-09-13T11:11:23.036Z,94868.75
2022-09-13T11:14:20.425Z,94875.88
2022-09-13T11:17:03.867Z,94868.88
2022-09-13T11:19:45.549Z,94881.66
2022-09-13T11:22:50.974Z,94882.28
2022-09-13T11:25:40.564Z,94872.56
2022-09-13T11:28:40.433Z,94874.06
2022-09-13T11:31:57.437Z,94874.84
2022-09-13T11:34:39.338Z,94878.66
2022-09-13T11:37:14.951Z,94850.44
2022-09-13T11:39:58.079Z,94841.50
2022-09-13T11:42:54.112Z,94856.41
2022-09-13T11:45:32.620Z,94869.59
2022-09-13T11:48:44.417Z,94863.22
2022-09-13T11:51:49.079Z,94871.53
2022-09-13T11:54:43.301Z,94883.97
2022-09-13T11:57:19.791Z,94881.06
2022-09-13T11:59:59.504Z,94877.44
2022-09-13T12:02:47.452Z,94879.53
2022-09-13T12:05:24.371Z,94885.00
2022-09-13T12:08:01.084Z,94874.56
2022-09-13T12:10:40.796Z,94881.69
2022-09-13T12:13:15.421Z,94874.75
2022-09-13T12:15:48.453Z,94865.78
2022-09-13T12:18:29.908Z,94868.25
2022-09-13T12:21:10.497Z,94871.44
2022-09-13T12:23:40.692Z,94872.41
2022-09-13T12:26:15.140Z,94867.09
2022-09-13T12:29:03.134Z,94863.28
2022-09-13T12:31:32.147Z,94862.97
2022-09-13T12:34:00.792Z,94865.41
2022-09-13T12:37:21.285Z,94873.94
2022-09-13T12:40:02.650Z,94882.44
2022-09-13T12:42:44.190Z,94898.56
2022-09-13T12:45:41.828Z,94901.91
2022-09-13T12:48:11.518Z,94911.34
2022-09-13T12:50:46.564Z,94925.31
2022-09-13T12:53:37.584Z,94935.94
2022-09-13T12:56:37.154Z,94950.84
2022-09-13T12:59:23.009Z,94968.63
2022-09-13T13:01:52.269Z,94985.84
2022-09-13T13:04:21.773Z,94990.28
2022-09-13T13:06:51.758Z,94997.59
2022-09-13T13:09:39.059Z,95014.78
2022-09-13T13:12:06.246Z,95035.50
2022-09-13T13:14:39.109Z,95051.47
2022-09-13T13:17:43.261Z,95071.75
2022-09-13T13:20:41.238Z,95101.28
2022-09-13T13:23:20.001Z,95134.50
2022-09-13T13:26:11.390Z,95177.72
2022-09-13T13:28:52.125Z,95214.28
2022-09-13T13:31:24.765Z,95245.00
2022-09-13T13:34:02.108Z,95267.84
2022-09-13T13:36:53.077Z,95308.00
2022-09-13T13:39:28.207Z,95333.00
2022-09-13T13:41:58.841Z,95363.19
2022-09-13T13:44:25.579Z,95392.75
2022-09-13T13:47:17.292Z,95418.38
2022-09-13T13:49:46.329Z,95427.06
2022-09-13T13:52:16.816Z,95445.94
2022-09-13T13:54:46.041Z,95463.06
2022-09-13T13:57:29.892Z,95488.88
2022-09-13T14:00:17.933Z,95502.50
2022-09-13T14:02:50.560Z,95511.63
2022-09-13T14:05:22.560Z,95507.66
2022-09-13T14:08:25.932Z,95508.25
2022-09-13T14:11:34.473Z,95496.09
2022-09-13T14:14:23.618Z,95488.75
2022-09-13T14:17:01.878Z,95481.16
2022-09-13T14:19:41.551Z,95476.00
2022-09-13T14:22:16.040Z,95473.44
2022-09-13T14:24:46.362Z,95467.75
2022-09-13T14:27:20.618Z,95446.28
2022-09-13T14:29:51.148Z,95411.47
2022-09-13T14:32:35.835Z,95405.53
2022-09-13T14:35:07.236Z,95372.53
2022-09-13T14:37:38.637Z,95357.50
2022-09-13T14:40:10.124Z,95341.84
2022-09-13T14:42:43.176Z,95333.19
2022-09-13T14:45:25.502Z,95321.16
2022-09-13T14:48:14.944Z,95312.75
2022-09-13T14:51:20.948Z,95285.19
2022-09-13T14:53:52.071Z,95270.56
2022-09-13T14:56:53.432Z,95256.28
2022-09-13T14:59:32.131Z,95231.41
2022-09-13T15:02:05.359Z,95206.66
2022-09-13T15:04:32.132Z,95207.28
2022-09-13T15:07:36.327Z,95196.94
2022-09-13T15:10:09.960Z,95174.94
2022-09-13T15:12:37.275Z,95178.16
2022-09-13T15:15:19.224Z,95199.16
2022-09-13T15:18:16.111Z,95227.94
2022-09-13T15:21:17.025Z,95262.41
2022-09-13T15:23:51.438Z,95288.91
2022-09-13T15:26:21.402Z,95313.56
2022-09-13T15:28:54.131Z,95334.16
2022-09-13T15:31:31.748Z,95365.66
2022-09-13T15:34:24.320Z,95397.69
2022-09-13T15:37:14.870Z,95447.94
2022-09-13T15:40:02.286Z,95496.81
2022-09-13T15:42:28.990Z,95539.00
2022-09-13T15:44:55.532Z,95576.44
2022-09-13T15:47:22.223Z,95627.13
2022-09-13T15:49:51.097Z,95651.50
2022-09-13T15:52:19.964Z,95662.47
2022-09-13T15:54:49.496Z,95678.38
2022-09-13T15:57:28.208Z,95681.22
2022-09-13T15:59:56.867Z,95664.44
2022-09-13T16:02:26.367Z,95661.25
2022-09-13T16:04:53.881Z,95651.16
2022-09-13T16:07:21.125Z,95659.78
2022-09-13T16:09:48.335Z,95670.75
2022-09-13T16:12:15.105Z,95685.75
2022-09-13T16:14:41.826Z,95683.78
2022-09-13T16:17:21.361Z,95728.09
2022-09-13T16:19:48.341Z,95752.41
2022-09-13T16:22:16.433Z,95758.34
2022-09-13T16:24:43.772Z,95775.88
2022-09-13T16:27:13.600Z,95795.91
2022-09-13T16:29:41.116Z,95797.84
2022-09-13T16:32:09.823Z,95791.16
2022-09-13T16:34:36.416Z,95800.97
2022-09-13T16:37:03.028Z,95792.41
2022-09-13T16:39:31.643Z,95789.59
2022-09-13T16:42:00.168Z,95774.91
2022-09-13T16:44:28.832Z,95778.50
2022-09-13T16:46:55.474Z,95744.16
2022-09-13T16:49:22.177Z,95724.84
2022-09-13T16:51:49.020Z,95737.16
2022-09-13T16:54:15.656Z,95738.72
2022-09-13T16:56:42.583Z,95740.75
2022-09-13T16:59:09.427Z,95736.84
2022-09-13T17:01:36.279Z,95730.03
2022-09-13T17:04:03.641Z,95731.56
2022-09-13T17:06:30.444Z,95711.03
2022-09-13T17:09:02.520Z,95708.75
2022-09-13T17:11:38.956Z,95703.91
2022-09-13T17:14:07.729Z,95690.75
2022-09-13T17:16:38.090Z,95683.31
2022-09-13T17:19:08.763Z,95668.03
2022-09-13T17:21:35.865Z,95659.84
2022-09-13T17:24:02.932Z,95658.66
2022-09-13T17:26:29.687Z,95656.78
2022-09-13T17:28:57.331Z,95650.63
2022-09-13T17:31:24.335Z,95648.59
2022-09-13T17:33:51.181Z,95632.97
2022-09-13T17:36:17.987Z,95629.13
2022-09-13T17:38:45.126Z,95630.25
2022-09-13T17:41:14.513Z,95637.41
2022-09-13T17:43:43.141Z,95626.22
2022-09-13T17:46:16.258Z,95631.03
2022-09-13T17:48:46.017Z,95623.78
2022-09-13T17:51:15.426Z,95618.03
2022-09-13T17:53:47.736Z,95599.34
2022-09-13T17:56:23.825Z,95579.91
2022-09-13T17:58:50.460Z,95572.13
2022-09-13T18:01:17.393Z,95580.84
2022-09-13T18:03:44.284Z,95583.75
2022-09-13T18:06:11.885Z,95571.03
2022-09-13T18:08:39.414Z,95568.75
2022-09-13T18:11:14.229Z,95556.31
2022-09-13T18:13:43.043Z,95553.03
2022-09-13T18:16:21.772Z,95560.03
2022-09-13T18:18:50.153Z,95555.13
2022-09-13T18:21:19.270Z,95554.44
2022-09-13T18:23:52.264Z,95553.91
2022-09-13T18:26:21.301Z,95552.38
2022-09-13T18:28:53.668Z,95551.50
2022-09-13T18:31:20.565Z,95550.31
2022-09-13T18:33:47.965Z,95535.13
2022-09-13T18:36:16.816Z,95527.28
2022-09-13T18:38:45.956Z,95519.00
2022-09-13T18:41:14.958Z,95525.59
2022-09-13T18:43:45.826Z,95524.56
2022-09-13T18:46:19.404Z,95529.78
2022-09-13T18:48:48.622Z,95510.78
2022-09-13T18:51:17.931Z,95507.97
2022-09-13T18:53:45.654Z,95504.34
2022-09-13T18:56:15.405Z,95518.88
2022-09-13T18:58:43.392Z,95517.75
2022-09-13T19:01:15.563Z,95515.03
2022-09-13T19:03:49.380Z,95521.00
2022-09-13T19:06:24.833Z,95534.81
2022-09-13T19:08:53.636Z,95540.38
2022-09-13T19:11:45.190Z,95551.38
2022-09-13T19:14:10.184Z,95547.19
2022-09-13T19:16:37.000Z,95557.66
2022-09-13T19:19:05.426Z,95559.56
2022-09-13T19:21:33.209Z,95569.69
2022-09-13T19:24:06.571Z,95574.03
2022-09-13T19:26:39.368Z,95573.69
2022-09-13T19:29:08.940Z,95584.25
2022-09-13T19:31:39.145Z,95590.31
2022-09-13T19:34:09.228Z,95586.81
2022-09-13T19:36:38.319Z,95587.31
2022-09-13T19:39:06.353Z,95581.84
2022-09-13T19:41:33.611Z,95576.75
2022-09-13T19:44:01.843Z,95586.97
2022-09-13T19:46:31.939Z,95579.97
2022-09-13T19:48:59.669Z,95573.81
2022-09-13T19:51:33.398Z,95577.66
2022-09-13T19:54:00.939Z,95586.63
2022-09-13T19:56:32.970Z,95590.38
2022-09-13T19:59:00.780Z,95579.59
2022-09-13T20:01:36.533Z,95583.88
2022-09-13T20:04:08.231Z,95579.59
2022-09-13T20:06:44.371Z,95585.91
2022-09-13T20:09:12.713Z,95576.53
2022-09-13T20:11:42.622Z,95578.91
2022-09-13T20:14:09.752Z,95582.81
2022-09-13T20:16:40.493Z,95585.91
2022-09-13T20:19:29.596Z,95589.88
2022-09-13T20:21:55.633Z,95597.88
2022-09-13T20:24:23.156Z,95584.25
2022-09-13T20:26:52.100Z,95583.41
2022-09-13T20:29:19.048Z,95573.84
2022-09-13T20:31:45.786Z,95578.53
2022-09-13T20:34:15.199Z,95575.44
2022-09-13T20:36:44.460Z,95577.81
2022-09-13T20:39:11.613Z,95574.59
2022-09-13T20:41:38.476Z,95573.06
2022-09-13T20:44:05.506Z,95562.66
2022-09-13T20:46:32.286Z,95557.72
2022-09-13T20:48:59.465Z,95545.63
2022-09-13T20:51:28.117Z,95534.56
2022-09-13T20:53:58.137Z,95538.41
2022-09-13T20:56:25.117Z,95533.31
2022-09-13T20:58:57.731Z,95541.91
2022-09-13T21:01:25.487Z,95539.66
2022-09-13T21:03:53.941Z,95528.75
2022-09-13T21:06:26.270Z,95523.75
2022-09-13T21:08:54.025Z,95532.00
2022-09-13T21:11:32.476Z,95539.91
2022-09-13T21:14:03.027Z,95544.25
2022-09-13T21:16:35.002Z,95549.19
2022-09-13T21:19:01.877Z,95555.31
2022-09-13T21:21:38.562Z,95563.50
2022-09-13T21:24:09.859Z,95569.38
2022-09-13T21:26:42.235Z,95565.53
2022-09-13T21:29:10.175Z,95554.66
2022-09-13T21:31:38.269Z,95556.66
2022-09-13T21:34:08.597Z,95546.25
2022-09-13T21:36:35.811Z,95543.94
2022-09-13T21:39:03.496Z,95535.81
2022-09-13T21:41:30.847Z,95532.41
2022-09-13T21:44:00.132Z,95537.94
2022-09-13T21:46:31.278Z,95553.16
2022-09-13T21:48:59.945Z,95568.09
2022-09-13T21:51:31.344Z,95559.91
2022-09-13T21:53:59.538Z,95556.00
2022-09-13T21:56:28.627Z,95571.16
2022-09-13T21:58:55.269Z,95571.69
2022-09-13T22:01:23.504Z,95561.56
2022-09-13T22:03:51.949Z,95560.00
2022-09-13T22:06:20.519Z,95548.34
2022-09-13T22:08:58.903Z,95542.97
2022-09-13T22:11:28.993Z,95536.00
2022-09-13T22:13:57.252Z,95520.00
2022-09-13T22:16:35.721Z,95516.94
2022-09-13T22:19:09.061Z,95521.59
2022-09-13T22:21:38.982Z,95506.38
2022-09-13T22:24:07.960Z,95528.59
2022-09-13T22:26:39.625Z,95524.75
2022-09-13T22:29:07.682Z,95521.38
2022-09-13T22:31:37.531Z,95533.97
2022-09-13T22:34:05.097Z,95519.16
2022-09-13T22:36:31.958Z,95523.84
2022-09-13T22:38:59.087Z,95517.13
2022-09-13T22:41:28.415Z,95521.03
2022-09-13T22:43:55.492Z,95518.31
2022-09-13T22:46:28.736Z,95509.47
2022-09-13T22:48:56.300Z,95505.56
2022-09-13T22:51:23.859Z,95506.75
2022-09-13T22:53:52.002Z,95495.91
2022-09-13T22:56:30.291Z,95492.91
2022-09-13T22:59:00.863Z,95485.22
2022-09-13T23:01:29.151Z,95468.53
2022-09-13T23:03:56.562Z,95455.28
2022-09-13T23:06:25.534Z,95429.97
2022-09-13T23:08:53.761Z,95422.50
2022-09-13T23:11:27.093Z,95402.66
2022-09-13T23:13:58.351Z,95396.81
2022-09-13T23:16:33.881Z,95379.63
2022-09-13T23:19:00.803Z,95364.31
2022-09-13T23:21:31.103Z,95371.47
2022-09-13T23:24:00.848Z,95374.53
2022-09-13T23:26:28.495Z,95368.25
2022-09-13T23:28:57.916Z,95365.03
2022-09-13T23:31:27.462Z,95358.75
2022-09-13T23:33:56.879Z,95357.19
2022-09-13T23:36:27.100Z,95352.44
2022-09-13T23:38:56.191Z,95351.34
2022-09-13T23:41:25.985Z,95358.88
2022-09-13T23:43:53.811Z,95351.47
2022-09-13T23:46:21.158Z,95345.28
2022-09-13T23:48:48.191Z,95339.00
2022-09-13T23:51:20.333Z,95337.03
2022-09-13T23:53:47.367Z,95337.03
2022-09-13T23:56:14.272Z,95343.25
2022-09-13T23:58:40.954Z,95337.78
